Address 0x1329cfb47b4c26bb3ed8e8f83d87e5993f2a6199 1

Txn Hash Method
Block
From
To
Value [Txn Fee]
0x2ecda81a9248adc4bed806131df076ec8b57d8becd79b220addcf83917c04c470xd1df69bb243264632022-09-24 21:58:0530 mins ago0x1329cfb47b4c26bb3ed8e8f83d87e5993f2a6199OUT 0x36b9cb8647498b91db009c978fbc099818a8bb260 xDAI0.00088731828
0xf89c89b83c1af9bd92c5e4d1ae5ebe2bf754ce6d7d5dd335bfcd036ef1913fde0xd1df69bb243264632022-09-24 21:58:0530 mins ago0x1329cfb47b4c26bb3ed8e8f83d87e5993f2a6199OUT 0x36b9cb8647498b91db009c978fbc099818a8bb260 xDAI0.00122062662
0xa5c4ab5a61946efdca9a575f003908eafb5d7d2c2d98c8b8fd8dd17879fe670b0xd1df69bb243264622022-09-24 21:57:5530 mins ago0x1329cfb47b4c26bb3ed8e8f83d87e5993f2a6199OUT 0x36b9cb8647498b91db009c978fbc099818a8bb260 xDAI0.00159500394
0x3b782ca76db589d9882977d842b7e943a261118b696bff843a18edcccda0fccd0x9254803a243264602022-09-24 21:57:4530 mins ago0x1329cfb47b4c26bb3ed8e8f83d87e5993f2a6199OUT 0x6bea81ec5ab332550b3037dcf50f4aaed381624b0 xDAI0.0060562929
0x55dea1851ee33876b18bc088a478f1c89b95bed9f20489d84ef91d6c4038d4960xd1df69bb243264572022-09-24 21:57:3031 mins ago0x1329cfb47b4c26bb3ed8e8f83d87e5993f2a6199OUT 0x36b9cb8647498b91db009c978fbc099818a8bb260 xDAI0.00088731828
0x0ac9d4685948ce4e85342c312e07ec212307c14cdde956328182e589300096ea0xd1df69bb243264572022-09-24 21:57:3031 mins ago0x1329cfb47b4c26bb3ed8e8f83d87e5993f2a6199OUT 0x36b9cb8647498b91db009c978fbc099818a8bb260 xDAI0.00122062662
0xd3276862621383121b2e8a73a2479c32426b389a4bc7f98461d7c6ef26c43cb80xd1df69bb243264562022-09-24 21:57:2531 mins ago0x1329cfb47b4c26bb3ed8e8f83d87e5993f2a6199OUT 0x36b9cb8647498b91db009c978fbc099818a8bb260 xDAI0.00364352883
0x97feef5a8990abfa07bea23a9e491c065f636a9ae02778975a125a5ca0aa3f6c0x9254803a243264542022-09-24 21:57:1031 mins ago0x1329cfb47b4c26bb3ed8e8f83d87e5993f2a6199OUT 0x8a6f02c7f9914089e82fa17bf0c25ed3113dead30 xDAI0.00604641297
0x686d41b22ba846161f255e17289ee6c30756b1a2c39a9580dd809cd368532d130xd1df69bb243261832022-09-24 21:29:2559 mins ago0x1329cfb47b4c26bb3ed8e8f83d87e5993f2a6199OUT 0x36b9cb8647498b91db009c978fbc099818a8bb260 xDAI0.00174351999
0x19308b3defbcc07b309f04fde2aedf9d72432479455854f4a2089d36d1bcc1c10xd1df69bb243261812022-09-24 21:29:1059 mins ago0x1329cfb47b4c26bb3ed8e8f83d87e5993f2a6199OUT 0x36b9cb8647498b91db009c978fbc099818a8bb260 xDAI0.00174351999
0x405613cea83e6f74b510331b80a820bcab6be42926e5a357f4b1915213e8d19a0xd1df69bb243261812022-09-24 21:29:1059 mins ago0x1329cfb47b4c26bb3ed8e8f83d87e5993f2a6199OUT 0x36b9cb8647498b91db009c978fbc099818a8bb260 xDAI0.00122062662
0x6a135de34a02061c7967808e7d29ee90361a636166bbd0af6f439307e51235b30xd1df69bb243261812022-09-24 21:29:1059 mins ago0x1329cfb47b4c26bb3ed8e8f83d87e5993f2a6199OUT 0x36b9cb8647498b91db009c978fbc099818a8bb260 xDAI0.00364352883
0x4e8afe41bd6a89baf4d7f939d03087555f3e1d8b5880d4737a3b688fc9e4481e0x9254803a243261782022-09-24 21:28:5059 mins ago0x1329cfb47b4c26bb3ed8e8f83d87e5993f2a6199OUT 0x8a6f02c7f9914089e82fa17bf0c25ed3113dead30 xDAI0.00509368149
0x26515082eb55b8d1d27dcad4482538a2c87bc52f3efbae0cf617649dd9311fa60xd1df69bb243261782022-09-24 21:28:5059 mins ago0x1329cfb47b4c26bb3ed8e8f83d87e5993f2a6199OUT 0x36b9cb8647498b91db009c978fbc099818a8bb260 xDAI0.00174697185
0x691096416b5769f2ce20e451089cee48c4cb0a5049f89a6ac7ec8f19d22f04860xd1df69bb243260352022-09-24 21:14:101 hr 14 mins ago0x1329cfb47b4c26bb3ed8e8f83d87e5993f2a6199OUT 0x36b9cb8647498b91db009c978fbc099818a8bb260 xDAI0.00088731828
0xe2ea59c693ea31ecb156f804c638f3bc44fc8a69ab155d2bd336b58954e060220xd1df69bb243260352022-09-24 21:14:101 hr 14 mins ago0x1329cfb47b4c26bb3ed8e8f83d87e5993f2a6199OUT 0x36b9cb8647498b91db009c978fbc099818a8bb260 xDAI0.00115643652
0xede5282edcb95880d03d55a8e74ef10bcad39f58d6436560f1462f2a1d40b4f60xd1df69bb243260352022-09-24 21:14:101 hr 14 mins ago0x1329cfb47b4c26bb3ed8e8f83d87e5993f2a6199OUT 0x36b9cb8647498b91db009c978fbc099818a8bb260 xDAI0.00159500394
0x3b64d297c4ce7bacea8c8c9f38cdab5cd38d8a31f59a51f0ca5f8807c704e0530x9254803a243260332022-09-24 21:13:551 hr 14 mins ago0x1329cfb47b4c26bb3ed8e8f83d87e5993f2a6199OUT 0x6bea81ec5ab332550b3037dcf50f4aaed381624b0 xDAI0.0049471677
0x086f9804a09ac7da23e8d6af09d57d98d995dd6c029c6fb7eb6cf615c9c5a4540xd1df69bb243258592022-09-24 20:56:101 hr 32 mins ago0x1329cfb47b4c26bb3ed8e8f83d87e5993f2a6199OUT 0x36b9cb8647498b91db009c978fbc099818a8bb260 xDAI0.00227465853
0x6c89bb2a91007d887e3cce1a7b277326aa02351a08772f658c3baa29c87d1e050xd1df69bb243258592022-09-24 20:56:101 hr 32 mins ago0x1329cfb47b4c26bb3ed8e8f83d87e5993f2a6199OUT 0x36b9cb8647498b91db009c978fbc099818a8bb260 xDAI0.00317340405
0x8b144facd18f46761728876a7c2594d19cdc9ff17407eefc0b13fe26d05156d60xd1df69bb243258592022-09-24 20:56:101 hr 32 mins ago0x1329cfb47b4c26bb3ed8e8f83d87e5993f2a6199OUT 0x36b9cb8647498b91db009c978fbc099818a8bb260 xDAI0.00475347801
0x57091a964a0fc117b83c89b2280eb692fe05edfeb134efa6dfa1722ea3d834d90x9254803a243258572022-09-24 20:55:551 hr 32 mins ago0x1329cfb47b4c26bb3ed8e8f83d87e5993f2a6199OUT 0x8a6f02c7f9914089e82fa17bf0c25ed3113dead30 xDAI0.00663414639
0xb0a1424c19ec4ba53af8579265658f423c8091801a29aeae6f1bafdf10dd43230xd1df69bb243258572022-09-24 20:55:551 hr 32 mins ago0x1329cfb47b4c26bb3ed8e8f83d87e5993f2a6199OUT 0x36b9cb8647498b91db009c978fbc099818a8bb260 xDAI0.00227916195
0x54a92b30b514b2e37bc05e9bee31ae0c2d028ba330cf4dc21c6cd1626e6b13d10xd1df69bb243258562022-09-24 20:55:501 hr 32 mins ago0x1329cfb47b4c26bb3ed8e8f83d87e5993f2a6199OUT 0x36b9cb8647498b91db009c978fbc099818a8bb260 xDAI0.00317954454
0x9a4232bdc629f90022e5ede6e5d6892f7f630588cd5563813ec16cff583450ce0xd1df69bb243258562022-09-24 20:55:501 hr 32 mins ago0x1329cfb47b4c26bb3ed8e8f83d87e5993f2a6199OUT 0x36b9cb8647498b91db009c978fbc099818a8bb260 xDAI0.00475347801
[ Download CSV Export 
Latest 1 internal transaction
Parent Txn Hash Block From To Value
0x37e4bab07a0e45fe9c247e0ab48abc96a6c9f3da576171a23495c60b7741f6fa243237522022-09-24 17:19:505 hrs 8 mins ago 0xe43e60736b1cb4a75ad25240e2f9a62bff65c0c00x1329cfb47b4c26bb3ed8e8f83d87e5993f2a61990.106920819835788999 xDAI
[ Download CSV Export 
Loading

Contract Name:
0

Compiler Version
0

Optimization Enabled:
0

Other Settings:
-NA-
Block Transaction Gas Used Reward
Age Block Fee Address BC Fee Address Voting Power Jailed Incoming
Block Uncle Number Difficulty Gas Used Reward
Loading
Make sure to use the "Vote Down" button for any spammy posts, and the "Vote Up" for interesting conversations.